Time;durP1;ratioP1;P1;durP2;ratioP2;P2;SDS_P1;SDS_P2;PMS_P1;PMS_P2;Temp;Humidity;BMP_temperature;BMP_pressure;BME280_temperature;BME280_humidity;BME280_pressure;Samples;Min_cycle;Max_cycle;Signal;HPM_P1;HPM_P2
2024/01/07 00:00:02;;;;;;;1.03;1.00;;;4.40;99.90;;;;;;4936443;29;20182;-60
2024/01/07 00:02:27;;;;;;;2.55;0.95;;;4.40;99.90;;;;;;4937008;29;20241;-60
2024/01/07 00:04:53;;;;;;;1.53;1.43;;;4.40;99.90;;;;;;4936643;29;20184;-60
2024/01/07 00:07:20;;;;;;;0.60;0.60;;;4.40;99.90;;;;;;4936972;29;20740;-60
2024/01/07 00:09:46;;;;;;;0.93;0.93;;;4.40;99.90;;;;;;4937141;29;20664;-60
2024/01/07 00:12:11;;;;;;;0.63;0.63;;;4.40;99.90;;;;;;4936371;29;20209;-60
2024/01/07 00:14:37;;;;;;;1.70;1.40;;;4.40;99.90;;;;;;4936607;29;20302;-60
2024/01/07 00:17:03;;;;;;;0.67;0.60;;;4.40;99.90;;;;;;4937298;29;20262;-60
2024/01/07 00:19:31;;;;;;;1.63;1.53;;;4.40;99.90;;;;;;4936971;29;20189;-60
2024/01/07 00:21:57;;;;;;;0.85;0.82;;;4.40;99.90;;;;;;4937230;29;20792;-60
2024/01/07 00:24:25;;;;;;;1.83;1.60;;;4.30;99.90;;;;;;4936915;29;20186;-60
2024/01/07 00:26:51;;;;;;;0.65;0.60;;;4.30;99.90;;;;;;4936642;29;20442;-59
2024/01/07 00:29:16;;;;;;;0.50;0.50;;;4.30;99.90;;;;;;4936628;29;20182;-60
2024/01/07 00:31:42;;;;;;;1.00;1.00;;;4.20;99.90;;;;;;4935927;29;20218;-60
2024/01/07 00:34:08;;;;;;;1.03;1.03;;;4.30;99.90;;;;;;4936254;29;20185;-61
2024/01/07 00:36:33;;;;;;;1.43;1.37;;;4.40;99.90;;;;;;4936016;29;20285;-61
2024/01/07 00:38:59;;;;;;;1.10;1.00;;;4.40;99.90;;;;;;4936080;29;20178;-60
2024/01/07 00:41:24;;;;;;;0.80;0.67;;;4.40;99.90;;;;;;4936048;29;20177;-61
2024/01/07 00:43:50;;;;;;;1.17;1.13;;;4.40;99.90;;;;;;4936332;29;20754;-60
2024/01/07 00:46:16;;;;;;;0.90;0.70;;;4.30;99.90;;;;;;4936235;29;20289;-60
2024/01/07 00:48:41;;;;;;;1.33;1.03;;;4.40;99.90;;;;;;4936163;29;20643;-60
2024/01/07 00:51:07;;;;;;;1.47;0.97;;;4.30;99.90;;;;;;4936423;29;20194;-61
2024/01/07 00:53:33;;;;;;;1.10;1.10;;;4.30;99.90;;;;;;4937045;29;20202;-60
2024/01/07 00:55:58;;;;;;;2.30;2.07;;;4.30;99.90;;;;;;4936486;29;20178;-60
2024/01/07 00:58:24;;;;;;;1.07;1.07;;;4.40;99.90;;;;;;4935847;29;20457;-60
2024/01/07 01:00:50;;;;;;;4.00;3.43;;;4.40;99.90;;;;;;4935766;29;20194;-61
2024/01/07 01:03:16;;;;;;;1.20;1.13;;;4.40;99.90;;;;;;4936668;29;20210;-60
2024/01/07 01:05:42;;;;;;;1.27;1.17;;;4.40;99.90;;;;;;4936380;29;20182;-60
2024/01/07 01:08:07;;;;;;;0.80;0.77;;;4.30;99.90;;;;;;4936631;29;20195;-61
2024/01/07 01:10:33;;;;;;;0.90;0.90;;;4.30;99.90;;;;;;4936061;29;20180;-60
2024/01/07 01:12:59;;;;;;;2.00;1.23;;;4.30;99.90;;;;;;4935792;29;20206;-60
2024/01/07 01:15:24;;;;;;;0.63;0.63;;;4.40;99.90;;;;;;4938465;29;20230;-60
2024/01/07 01:17:50;;;;;;;0.93;0.93;;;4.40;99.90;;;;;;4922668;29;20250;-60
2024/01/07 01:20:16;;;;;;;0.70;0.60;;;4.40;99.90;;;;;;4939258;29;20220;-60
2024/01/07 01:22:41;;;;;;;0.83;0.83;;;4.40;99.90;;;;;;4939555;29;20175;-61
2024/01/07 01:25:07;;;;;;;0.70;0.70;;;4.30;99.90;;;;;;4939875;29;20908;-60
2024/01/07 01:27:33;;;;;;;2.77;2.30;;;4.30;99.90;;;;;;4939534;29;20434;-60
2024/01/07 01:29:59;;;;;;;2.00;0.70;;;4.20;99.90;;;;;;4939473;29;20445;-61
2024/01/07 01:32:24;;;;;;;0.60;0.60;;;4.20;99.90;;;;;;4939256;29;20297;-60
2024/01/07 01:34:50;;;;;;;0.60;0.60;;;3.90;99.90;;;;;;4939824;29;20175;-60
2024/01/07 01:37:15;;;;;;;1.23;1.23;;;3.90;99.90;;;;;;4939850;29;20672;-61
2024/01/07 01:39:41;;;;;;;0.30;0.30;;;4.00;99.90;;;;;;4939417;29;20177;-61
2024/01/07 01:42:07;;;;;;;0.50;0.50;;;3.90;99.90;;;;;;4939421;29;20229;-60
2024/01/07 01:44:33;;;;;;;0.73;0.73;;;3.80;99.90;;;;;;4939501;29;20501;-60
2024/01/07 01:47:00;;;;;;;0.40;0.40;;;3.90;99.90;;;;;;4939234;29;20241;-60
2024/01/07 01:49:27;;;;;;;0.30;0.30;;;3.90;99.90;;;;;;4939379;29;20790;-60
2024/01/07 01:51:53;;;;;;;0.30;0.30;;;3.90;99.90;;;;;;4939090;29;20213;-60
2024/01/07 01:54:20;;;;;;;0.30;0.30;;;3.90;99.90;;;;;;4939356;29;20653;-60
2024/01/07 01:56:47;;;;;;;0.35;0.35;;;3.90;99.90;;;;;;4938891;29;20245;-61
2024/01/07 01:59:14;;;;;;;0.50;0.50;;;3.80;99.90;;;;;;4939082;29;20636;-60
2024/01/07 02:01:40;;;;;;;0.40;0.40;;;3.90;99.90;;;;;;4938648;29;20183;-60
2024/01/07 02:04:05;;;;;;;1.15;1.05;;;3.90;99.90;;;;;;4939118;29;20296;-60
2024/01/07 02:06:31;;;;;;;0.30;0.30;;;4.00;99.90;;;;;;4938722;29;20224;-60
2024/01/07 02:08:57;;;;;;;0.30;0.30;;;3.90;99.90;;;;;;4938834;29;20182;-60
2024/01/07 02:11:23;;;;;;;1.47;1.37;;;3.90;99.90;;;;;;4938559;29;20253;-60
2024/01/07 02:13:49;;;;;;;0.50;0.50;;;3.90;99.90;;;;;;4938912;29;20563;-60
2024/01/07 02:16:15;;;;;;;0.50;0.50;;;4.00;99.90;;;;;;4938713;29;20699;-60
2024/01/07 02:18:42;;;;;;;0.50;0.50;;;3.90;99.90;;;;;;4939227;29;20226;-61
2024/01/07 02:21:09;;;;;;;0.40;0.40;;;3.90;99.90;;;;;;4938495;29;20178;-61
2024/01/07 02:23:35;;;;;;;0.40;0.40;;;3.90;99.90;;;;;;4938710;29;20260;-60
2024/01/07 02:26:01;;;;;;;0.40;0.40;;;3.90;99.90;;;;;;4937308;29;20182;-60
2024/01/07 02:28:27;;;;;;;0.83;0.83;;;4.00;99.90;;;;;;4938761;29;20238;-60
2024/01/07 02:30:52;;;;;;;0.40;0.40;;;4.00;99.90;;;;;;4938760;29;20438;-60
2024/01/07 02:33:18;;;;;;;0.47;0.47;;;3.90;99.90;;;;;;4938314;29;20738;-60
2024/01/07 02:35:44;;;;;;;0.40;0.40;;;3.90;99.90;;;;;;4937934;29;20597;-60
2024/01/07 02:38:09;;;;;;;0.40;0.40;;;3.90;99.90;;;;;;4937784;29;20217;-60
2024/01/07 02:40:35;;;;;;;0.30;0.30;;;3.90;99.90;;;;;;4937959;29;20177;-60
2024/01/07 02:43:00;;;;;;;0.40;0.40;;;3.90;99.90;;;;;;4937950;29;20566;-60
2024/01/07 02:45:26;;;;;;;0.40;0.40;;;4.00;99.90;;;;;;4938560;29;20181;-60
2024/01/07 02:47:52;;;;;;;0.30;0.30;;;4.10;99.90;;;;;;4938250;29;20195;-60
2024/01/07 02:50:17;;;;;;;0.53;0.53;;;4.20;99.90;;;;;;4938367;29;20178;-61
2024/01/07 02:52:43;;;;;;;0.47;0.47;;;4.20;99.90;;;;;;4938161;29;20198;-60
2024/01/07 02:55:09;;;;;;;0.30;0.30;;;4.10;99.90;;;;;;4938252;29;20173;-60
2024/01/07 02:57:35;;;;;;;0.60;0.60;;;4.10;99.90;;;;;;4937930;29;20691;-61
2024/01/07 03:00:00;;;;;;;0.60;0.60;;;4.00;99.90;;;;;;4938281;29;20817;-61
2024/01/07 03:02:26;;;;;;;1.07;1.07;;;3.90;99.90;;;;;;4938137;29;20174;-60
2024/01/07 03:04:52;;;;;;;0.67;0.67;;;3.80;99.90;;;;;;4938043;29;20182;-60
2024/01/07 03:07:17;;;;;;;0.73;0.73;;;3.80;99.90;;;;;;4944672;29;20284;-60
2024/01/07 03:09:43;;;;;;;0.50;0.50;;;4.00;99.90;;;;;;4956980;29;20701;-61
2024/01/07 03:12:09;;;;;;;0.40;0.40;;;3.90;99.90;;;;;;4955228;29;20201;-60
2024/01/07 03:14:34;;;;;;;0.67;0.67;;;3.90;99.90;;;;;;4956217;29;20310;-59
2024/01/07 03:17:00;;;;;;;0.97;0.87;;;3.90;99.90;;;;;;4956504;28;20197;-60
2024/01/07 03:19:25;;;;;;;0.60;0.60;;;3.90;99.90;;;;;;4956779;29;20178;-60
2024/01/07 03:21:51;;;;;;;0.33;0.33;;;4.00;99.90;;;;;;4956514;29;20177;-60
2024/01/07 03:24:17;;;;;;;0.70;0.70;;;3.90;99.80;;;;;;4956742;29;20184;-60
2024/01/07 03:26:42;;;;;;;0.40;0.40;;;3.90;99.90;;;;;;4956380;28;20201;-60
2024/01/07 03:29:08;;;;;;;0.70;0.70;;;4.00;99.90;;;;;;4956631;29;20614;-60
2024/01/07 03:31:33;;;;;;;0.40;0.40;;;4.00;99.90;;;;;;4956171;29;20173;-60
2024/01/07 03:33:59;;;;;;;0.40;0.40;;;4.00;99.90;;;;;;4956557;29;20201;-61
2024/01/07 03:36:25;;;;;;;0.63;0.63;;;4.00;99.90;;;;;;4956148;28;20212;-60
2024/01/07 03:38:50;;;;;;;0.30;0.30;;;4.10;99.90;;;;;;4955961;29;20553;-60
2024/01/07 03:41:18;;;;;;;1.33;0.87;;;4.20;99.90;;;;;;4955920;29;20553;-60
2024/01/07 03:43:47;;;;;;;0.45;0.45;;;4.20;99.90;;;;;;4956485;29;20224;-60
2024/01/07 03:46:13;;;;;;;0.93;0.93;;;4.20;99.80;;;;;;4924200;29;20396;-60
2024/01/07 03:48:40;;;;;;;0.90;0.90;;;4.20;99.80;;;;;;4917737;29;20673;-60
2024/01/07 03:51:05;;;;;;;0.55;0.55;;;4.20;99.80;;;;;;4900375;29;20473;-60
2024/01/07 03:53:31;;;;;;;1.27;1.17;;;4.10;99.50;;;;;;4917858;29;20215;-60
2024/01/07 03:55:57;;;;;;;2.50;2.40;;;4.10;99.50;;;;;;4917451;29;20215;-60
2024/01/07 03:58:22;;;;;;;0.40;0.40;;;4.20;99.50;;;;;;4917388;29;20250;-60
2024/01/07 04:00:48;;;;;;;0.50;0.50;;;4.20;99.30;;;;;;4917355;29;20202;-61
2024/01/07 04:03:14;;;;;;;0.40;0.40;;;4.10;99.40;;;;;;4917897;29;20437;-60
2024/01/07 04:05:40;;;;;;;0.45;0.45;;;4.10;99.40;;;;;;4917657;29;20203;-60
2024/01/07 04:08:09;;;;;;;0.60;0.60;;;4.10;99.20;;;;;;4917614;29;20282;-60
2024/01/07 04:10:34;;;;;;;0.73;0.73;;;4.10;99.20;;;;;;4949625;23;20229;-55
2024/01/07 04:13:00;;;;;;;0.50;0.50;;;4.10;99.40;;;;;;4952100;29;20216;-53
2024/01/07 04:15:25;;;;;;;1.10;0.53;;;4.10;99.40;;;;;;4953108;29;20166;-55
2024/01/07 04:17:51;;;;;;;0.50;0.50;;;4.10;99.20;;;;;;4953128;29;20174;-55
2024/01/07 04:20:17;;;;;;;0.40;0.40;;;4.20;99.40;;;;;;4939090;29;20589;-55
2024/01/07 04:22:42;;;;;;;0.57;0.47;;;4.10;99.20;;;;;;4933813;29;20206;-55
2024/01/07 04:25:08;;;;;;;0.50;0.40;;;4.00;98.90;;;;;;4934287;29;20257;-55
2024/01/07 04:27:37;;;;;;;0.97;0.97;;;3.90;98.90;;;;;;4934964;29;20178;-55
2024/01/07 04:30:04;;;;;;;0.93;0.93;;;4.00;99.00;;;;;;4934670;29;20202;-55
2024/01/07 04:32:30;;;;;;;0.45;0.45;;;3.90;99.10;;;;;;4934702;29;20210;-53
2024/01/07 04:34:57;;;;;;;0.93;0.93;;;3.90;98.80;;;;;;4935022;29;20178;-54
2024/01/07 04:37:23;;;;;;;0.75;0.55;;;3.90;98.90;;;;;;4934840;29;20173;-55
2024/01/07 04:39:49;;;;;;;1.33;1.25;;;3.90;98.60;;;;;;4934809;29;20209;-55
2024/01/07 04:42:15;;;;;;;0.70;0.70;;;4.00;98.90;;;;;;4934501;29;20170;-55
2024/01/07 04:44:41;;;;;;;0.45;0.45;;;4.10;99.20;;;;;;4934860;29;20261;-55
2024/01/07 04:47:27;;;;;;;1.00;0.60;;;4.20;99.10;;;;;;4934789;29;20213;-55
2024/01/07 04:49:53;;;;;;;0.68;0.63;;;4.10;99.10;;;;;;4933780;29;20209;-51
2024/01/07 04:52:19;;;;;;;0.80;0.80;;;4.10;99.10;;;;;;4934593;29;20206;-55
2024/01/07 04:54:44;;;;;;;0.60;0.40;;;4.10;98.80;;;;;;4934582;29;20447;-55
2024/01/07 04:57:10;;;;;;;0.40;0.40;;;4.00;98.70;;;;;;4934602;29;20174;-53
2024/01/07 04:59:36;;;;;;;0.40;0.40;;;4.00;98.70;;;;;;4934540;29;20221;-54
2024/01/07 05:02:01;;;;;;;0.60;0.50;;;4.10;99.10;;;;;;4934235;29;20174;-55
2024/01/07 05:04:27;;;;;;;0.40;0.40;;;4.00;99.30;;;;;;4934561;29;20225;-55
2024/01/07 05:06:52;;;;;;;1.37;0.80;;;4.10;99.40;;;;;;4934311;29;20182;-51
2024/01/07 05:09:18;;;;;;;0.40;0.40;;;4.10;99.30;;;;;;4928490;29;20266;-52
2024/01/07 05:11:44;;;;;;;3.43;1.33;;;3.90;98.50;;;;;;4915215;29;20210;-56
2024/01/07 05:14:11;;;;;;;3.43;1.37;;;4.00;98.90;;;;;;4916011;29;20179;-56
2024/01/07 05:16:37;;;;;;;0.55;0.55;;;4.10;98.90;;;;;;4915218;29;20209;-55
2024/01/07 05:19:03;;;;;;;0.57;0.57;;;4.10;99.10;;;;;;4915163;29;20198;-54
2024/01/07 05:21:29;;;;;;;1.85;0.88;;;4.10;99.40;;;;;;4914960;29;20171;-56
2024/01/07 05:23:55;;;;;;;0.40;0.40;;;4.10;99.20;;;;;;4914914;29;20186;-55
2024/01/07 05:26:21;;;;;;;0.40;0.40;;;3.90;99.50;;;;;;4916288;29;20266;-56
2024/01/07 05:28:47;;;;;;;0.50;0.50;;;4.00;99.60;;;;;;4915273;29;20596;-56
2024/01/07 05:31:19;;;;;;;0.50;0.50;;;4.00;99.70;;;;;;4915039;29;20226;-56
2024/01/07 05:33:45;;;;;;;0.40;0.40;;;4.10;99.70;;;;;;4915145;29;20290;-56
2024/01/07 05:36:12;;;;;;;0.60;0.60;;;4.10;99.00;;;;;;4915191;29;20179;-54
2024/01/07 05:38:41;;;;;;;0.55;0.55;;;4.20;99.20;;;;;;4914579;29;20175;-55
2024/01/07 05:41:06;;;;;;;0.70;0.70;;;4.00;99.60;;;;;;4914945;29;20187;-56
2024/01/07 05:43:32;;;;;;;0.47;0.47;;;4.10;99.30;;;;;;4915448;29;20375;-56
2024/01/07 05:45:58;;;;;;;0.50;0.50;;;4.20;99.20;;;;;;4915178;29;20181;-55
2024/01/07 05:48:23;;;;;;;2.37;0.50;;;4.20;99.00;;;;;;4914756;29;20257;-56
2024/01/07 05:50:49;;;;;;;0.57;0.57;;;4.20;99.00;;;;;;4914250;29;20195;-56
2024/01/07 05:53:16;;;;;;;0.60;0.60;;;4.30;99.00;;;;;;4914869;29;20210;-55
2024/01/07 05:55:41;;;;;;;0.50;0.40;;;4.30;99.00;;;;;;4914958;29;20227;-56
2024/01/07 05:58:07;;;;;;;2.50;1.80;;;4.20;99.10;;;;;;4914935;29;20175;-55
2024/01/07 06:00:33;;;;;;;0.30;0.30;;;4.20;99.10;;;;;;4915069;29;20258;-53
2024/01/07 06:02:58;;;;;;;0.53;0.53;;;4.20;99.30;;;;;;4917086;29;20175;-53
2024/01/07 06:05:24;;;;;;;0.80;0.70;;;4.30;99.40;;;;;;4917298;29;20182;-55
2024/01/07 06:07:49;;;;;;;0.47;0.40;;;4.30;99.50;;;;;;4884657;29;20179;-56
2024/01/07 06:10:15;;;;;;;0.30;0.30;;;4.30;99.30;;;;;;4917054;29;20219;-54
2024/01/07 06:12:41;;;;;;;0.60;0.50;;;4.30;99.40;;;;;;4917770;29;20273;-56
2024/01/07 06:15:07;;;;;;;0.40;0.40;;;4.40;99.50;;;;;;4918109;29;20231;-54
2024/01/07 06:17:33;;;;;;;1.10;1.00;;;4.50;99.60;;;;;;4917523;29;20171;-56
2024/01/07 06:19:58;;;;;;;0.60;0.60;;;4.40;99.50;;;;;;4917592;29;20470;-56
2024/01/07 06:22:24;;;;;;;0.40;0.40;;;4.50;99.60;;;;;;4918045;29;20411;-55
2024/01/07 06:24:49;;;;;;;1.07;1.07;;;4.50;99.50;;;;;;4918246;29;20781;-56
2024/01/07 06:27:15;;;;;;;0.50;0.50;;;4.40;99.60;;;;;;4918164;29;20179;-56
2024/01/07 06:29:41;;;;;;;0.40;0.40;;;4.20;99.40;;;;;;4918237;29;20226;-56
2024/01/07 06:32:06;;;;;;;0.80;0.67;;;4.20;99.90;;;;;;4917641;29;20278;-56
2024/01/07 06:34:33;;;;;;;0.50;0.50;;;4.20;99.90;;;;;;4918140;29;20713;-54
2024/01/07 06:36:59;;;;;;;0.40;0.40;;;4.20;99.70;;;;;;4918376;29;20178;-56
2024/01/07 06:39:26;;;;;;;1.77;1.67;;;4.20;99.70;;;;;;4918115;29;20298;-54
2024/01/07 06:41:52;;;;;;;0.40;0.40;;;4.30;99.70;;;;;;4917278;29;20207;-55
2024/01/07 06:44:18;;;;;;;1.38;1.27;;;4.30;99.90;;;;;;4917333;29;20187;-54
2024/01/07 06:46:44;;;;;;;0.80;0.80;;;4.40;99.80;;;;;;4918244;29;20571;-56
2024/01/07 06:49:09;;;;;;;0.60;0.43;;;4.40;99.50;;;;;;4918033;29;20286;-56
2024/01/07 06:51:35;;;;;;;0.77;0.77;;;4.30;99.60;;;;;;4917017;29;20183;-56
2024/01/07 06:54:01;;;;;;;2.40;0.57;;;4.30;99.70;;;;;;4917707;29;20195;-56
2024/01/07 06:56:26;;;;;;;0.40;0.40;;;4.40;99.80;;;;;;4917669;29;20546;-56
2024/01/07 06:58:52;;;;;;;0.43;0.40;;;4.40;99.90;;;;;;4917169;29;20199;-54
2024/01/07 07:01:20;;;;;;;1.53;0.80;;;4.40;99.90;;;;;;4917303;29;20211;-54
2024/01/07 07:03:46;;;;;;;0.40;0.40;;;4.40;99.90;;;;;;4917467;29;20241;-56
2024/01/07 07:06:12;;;;;;;0.30;0.30;;;4.50;99.90;;;;;;4917368;29;20651;-56
2024/01/07 07:08:38;;;;;;;0.50;0.50;;;4.60;99.90;;;;;;4917506;29;20187;-55
2024/01/07 07:11:03;;;;;;;1.03;0.80;;;4.60;99.90;;;;;;4917121;29;20183;-56
2024/01/07 07:13:29;;;;;;;3.90;0.67;;;4.60;99.90;;;;;;4916515;29;20209;-54
2024/01/07 07:15:55;;;;;;;2.50;0.93;;;4.50;99.90;;;;;;4917185;29;20180;-56
2024/01/07 07:18:21;;;;;;;0.63;0.47;;;4.40;99.90;;;;;;4917248;29;20179;-56
2024/01/07 07:20:47;;;;;;;0.45;0.45;;;4.50;99.90;;;;;;4916585;29;20286;-56
2024/01/07 07:23:13;;;;;;;0.40;0.40;;;4.50;99.90;;;;;;4917068;29;20610;-56
2024/01/07 07:25:39;;;;;;;0.40;0.40;;;4.20;99.90;;;;;;4917088;29;20187;-56
2024/01/07 07:28:05;;;;;;;0.40;0.40;;;4.20;99.90;;;;;;4917080;29;20187;-56
2024/01/07 07:30:30;;;;;;;2.10;1.63;;;4.30;99.90;;;;;;4916713;29;20222;-56
2024/01/07 07:32:56;;;;;;;0.60;0.60;;;4.30;99.90;;;;;;4916627;29;20215;-56
2024/01/07 07:35:22;;;;;;;0.83;0.73;;;4.20;99.90;;;;;;4917017;29;20183;-56
2024/01/07 07:37:47;;;;;;;0.43;0.43;;;4.30;99.90;;;;;;4915995;29;20198;-56
2024/01/07 07:40:13;;;;;;;1.67;1.57;;;4.20;99.90;;;;;;4916447;29;20195;-55
2024/01/07 07:42:39;;;;;;;0.40;0.40;;;4.20;99.90;;;;;;4916327;29;20186;-54
2024/01/07 07:45:05;;;;;;;0.63;0.63;;;4.10;99.90;;;;;;4917140;29;20187;-55
2024/01/07 07:47:31;;;;;;;0.95;0.85;;;4.20;99.90;;;;;;4916540;29;20233;-56
2024/01/07 07:49:56;;;;;;;0.90;0.90;;;4.30;99.90;;;;;;4916336;29;20198;-54
2024/01/07 07:52:25;;;;;;;0.47;0.47;;;4.30;99.90;;;;;;4916351;29;20265;-56
2024/01/07 07:54:51;;;;;;;0.40;0.40;;;4.30;99.90;;;;;;4916622;29;20694;-56
2024/01/07 07:57:17;;;;;;;0.73;0.73;;;4.40;99.90;;;;;;4917155;29;20179;-56
2024/01/07 07:59:42;;;;;;;0.70;0.70;;;4.40;99.90;;;;;;4915938;29;20198;-56
2024/01/07 08:02:08;;;;;;;0.50;0.50;;;4.10;99.70;;;;;;4916131;29;20579;-56
2024/01/07 08:04:34;;;;;;;1.07;1.00;;;4.10;99.90;;;;;;4916375;29;20183;-56
2024/01/07 08:07:00;;;;;;;0.93;0.60;;;4.10;99.90;;;;;;4916336;29;20183;-56
2024/01/07 08:09:26;;;;;;;0.80;0.80;;;4.20;99.90;;;;;;4916753;29;20218;-56
2024/01/07 08:11:52;;;;;;;0.53;0.53;;;4.30;99.90;;;;;;4915743;29;20215;-56
2024/01/07 08:14:17;;;;;;;1.73;1.23;;;4.40;99.90;;;;;;4916244;29;20175;-55
2024/01/07 08:16:43;;;;;;;2.70;0.63;;;4.50;99.90;;;;;;4899032;29;20202;-56
2024/01/07 08:19:09;;;;;;;1.37;0.40;;;4.60;99.70;;;;;;4916123;29;20194;-56
2024/01/07 08:21:35;;;;;;;0.82;0.82;;;4.60;99.50;;;;;;4914984;29;20645;-55
2024/01/07 08:24:00;;;;;;;0.43;0.43;;;4.60;98.90;;;;;;4916131;29;20179;-54
2024/01/07 08:26:26;;;;;;;1.00;0.77;;;4.50;99.00;;;;;;4917086;29;20179;-55
2024/01/07 08:28:52;;;;;;;0.53;0.43;;;4.40;98.60;;;;;;4915960;29;20182;-56
2024/01/07 08:31:18;;;;;;;0.37;0.37;;;4.40;99.10;;;;;;4914912;29;20183;-56
2024/01/07 08:33:43;;;;;;;0.40;0.40;;;4.40;99.50;;;;;;4915681;29;20282;-54
2024/01/07 08:36:09;;;;;;;1.13;0.40;;;4.50;99.90;;;;;;4915846;29;20190;-55
2024/01/07 08:38:35;;;;;;;1.27;0.50;;;4.60;99.80;;;;;;4915905;29;20187;-56
2024/01/07 08:41:00;;;;;;;0.57;0.57;;;4.50;99.90;;;;;;4915495;29;20190;-53
2024/01/07 08:43:26;;;;;;;0.60;0.60;;;4.40;99.20;;;;;;4915483;29;20175;-56
2024/01/07 08:45:52;;;;;;;2.50;0.73;;;4.40;99.10;;;;;;4915699;29;20183;-54
2024/01/07 08:48:18;;;;;;;1.10;1.07;;;4.40;98.90;;;;;;4915356;29;20183;-56
2024/01/07 08:50:43;;;;;;;0.40;0.40;;;4.30;98.80;;;;;;4915151;29;20434;-54
2024/01/07 08:53:09;;;;;;;0.40;0.40;;;4.40;99.20;;;;;;4913618;29;20248;-56
2024/01/07 08:55:35;;;;;;;0.50;0.50;;;4.60;99.70;;;;;;4915373;29;20178;-56
2024/01/07 08:58:00;;;;;;;0.83;0.60;;;4.60;99.30;;;;;;4915813;29;20179;-56
2024/01/07 09:00:26;;;;;;;0.80;0.80;;;4.50;99.90;;;;;;4915336;29;20195;-56
2024/01/07 09:02:52;;;;;;;1.58;0.60;;;4.60;99.80;;;;;;4914641;29;20260;-56
2024/01/07 09:05:18;;;;;;;0.40;0.40;;;4.60;99.90;;;;;;4914846;29;20744;-56
2024/01/07 09:07:44;;;;;;;1.50;0.60;;;4.80;99.40;;;;;;4915717;29;20259;-56
2024/01/07 09:10:10;;;;;;;0.30;0.30;;;4.80;99.00;;;;;;4914921;29;20214;-55
2024/01/07 09:12:37;;;;;;;0.40;0.40;;;5.00;99.10;;;;;;4914579;29;20566;-55
2024/01/07 09:15:04;;;;;;;0.75;0.75;;;5.00;98.80;;;;;;4915230;29;20219;-55
2024/01/07 09:17:31;;;;;;;0.35;0.35;;;5.20;99.00;;;;;;4915513;29;20179;-56
2024/01/07 09:19:56;;;;;;;0.40;0.40;;;5.10;98.60;;;;;;4915567;29;20192;-56
2024/01/07 09:22:22;;;;;;;0.40;0.40;;;5.10;98.50;;;;;;4915104;29;20171;-56
2024/01/07 09:24:47;;;;;;;0.40;0.40;;;4.90;98.30;;;;;;4915043;29;20184;-56
2024/01/07 09:27:14;;;;;;;0.70;0.70;;;4.70;98.50;;;;;;4896122;29;20230;-56
2024/01/07 09:29:39;;;;;;;1.80;1.00;;;4.70;98.80;;;;;;4896649;29;20286;-56
2024/01/07 09:32:05;;;;;;;1.60;0.90;;;4.70;98.40;;;;;;4896088;29;20310;-54
2024/01/07 09:34:31;;;;;;;0.40;0.40;;;4.70;98.70;;;;;;4896681;29;20223;-55
2024/01/07 09:36:56;;;;;;;0.30;0.30;;;4.80;98.70;;;;;;4900018;29;20177;-56
2024/01/07 09:39:22;;;;;;;0.83;0.50;;;4.80;98.20;;;;;;4900078;29;20554;-53
2024/01/07 09:41:48;;;;;;;0.30;0.30;;;4.90;98.10;;;;;;4913243;29;20179;-49
2024/01/07 09:44:13;;;;;;;1.47;0.67;;;5.00;98.30;;;;;;4918913;29;20216;-56
2024/01/07 09:46:41;;;;;;;0.37;0.37;;;5.10;98.30;;;;;;4918732;29;20658;-58
2024/01/07 09:49:07;;;;;;;0.40;0.40;;;5.20;98.20;;;;;;4918909;29;20228;-54
2024/01/07 09:51:36;;;;;;;0.67;0.67;;;5.20;97.70;;;;;;4918438;29;20275;-56
2024/01/07 09:54:06;;;;;;;0.50;0.50;;;5.10;97.70;;;;;;4918824;29;20171;-54
2024/01/07 09:56:48;;;;;;;1.02;1.02;;;5.10;97.20;;;;;;4918759;29;20186;-48
2024/01/07 09:59:16;;;;;;;0.60;0.60;;;5.10;97.10;;;;;;4918876;29;20555;-47
2024/01/07 10:01:43;;;;;;;0.68;0.65;;;5.20;97.60;;;;;;4918399;29;20261;-55
2024/01/07 10:04:08;;;;;;;0.40;0.40;;;5.50;97.20;;;;;;4918804;29;20175;-56
2024/01/07 10:06:34;;;;;;;1.70;0.93;;;5.60;96.10;;;;;;4918668;29;20575;-53
2024/01/07 10:09:00;;;;;;;0.80;0.60;;;5.60;96.00;;;;;;4913197;29;20602;-56
2024/01/07 10:11:25;;;;;;;0.37;0.37;;;5.60;96.50;;;;;;4949639;23;21066;-57
2024/01/07 10:13:51;;;;;;;0.50;0.50;;;5.50;96.20;;;;;;4936153;29;20220;-57
2024/01/07 10:16:17;;;;;;;1.25;0.50;;;5.40;96.60;;;;;;4937206;29;20206;-58
2024/01/07 10:18:43;;;;;;;0.50;0.50;;;5.30;96.30;;;;;;4936333;29;20202;-56
2024/01/07 10:21:09;;;;;;;0.57;0.57;;;5.00;96.40;;;;;;4936836;29;20203;-59
2024/01/07 10:23:34;;;;;;;0.37;0.37;;;4.90;96.50;;;;;;4937410;29;20210;-59
2024/01/07 10:26:02;;;;;;;0.40;0.40;;;4.90;96.90;;;;;;4937306;29;20261;-59
2024/01/07 10:28:28;;;;;;;0.35;0.35;;;4.90;97.00;;;;;;4937160;29;20182;-59
2024/01/07 10:30:53;;;;;;;0.60;0.40;;;4.90;97.10;;;;;;4919822;29;20206;-60
2024/01/07 10:33:20;;;;;;;0.50;0.50;;;4.80;96.90;;;;;;4937355;29;20576;-59
2024/01/07 10:35:55;;;;;;;0.60;0.60;;;4.70;97.60;;;;;;4937525;29;20163;-60
2024/01/07 10:38:21;;;;;;;0.40;0.40;;;4.80;97.10;;;;;;4937023;29;20173;-57
2024/01/07 10:40:49;;;;;;;0.38;0.38;;;4.80;97.70;;;;;;4936596;29;20198;-59
2024/01/07 10:43:16;;;;;;;0.60;0.60;;;5.00;97.90;;;;;;4936820;29;20180;-60
2024/01/07 10:45:44;;;;;;;0.40;0.40;;;5.00;97.20;;;;;;4937203;29;20190;-59
2024/01/07 10:48:11;;;;;;;0.50;0.50;;;5.10;97.40;;;;;;4935673;29;20174;-59
2024/01/07 10:50:38;;;;;;;0.50;0.50;;;5.10;96.40;;;;;;4936735;29;20190;-58
2024/01/07 10:53:08;;;;;;;0.50;0.50;;;5.10;96.10;;;;;;4919289;29;20684;-60
2024/01/07 10:55:37;;;;;;;0.50;0.50;;;5.30;95.90;;;;;;4936724;29;20178;-60
2024/01/07 10:58:04;;;;;;;0.80;0.68;;;5.20;95.80;;;;;;4936390;29;20182;-60
2024/01/07 11:00:31;;;;;;;3.83;1.35;;;5.20;96.40;;;;;;4936483;29;20194;-60
2024/01/07 11:03:05;;;;;;;0.47;0.47;;;5.20;95.60;;;;;;4936413;29;20691;-57
2024/01/07 11:05:56;;;;;;;0.40;0.40;;;5.00;95.50;;;;;;4936579;29;20234;-56
2024/01/07 11:08:34;;;;;;;0.63;0.63;;;4.90;95.50;;;;;;4936519;29;20661;-59
2024/01/07 11:11:07;;;;;;;0.50;0.50;;;5.00;96.30;;;;;;4935710;29;20210;-58
2024/01/07 11:13:34;;;;;;;0.40;0.40;;;5.00;95.90;;;;;;4936259;29;20688;-56
2024/01/07 11:16:01;;;;;;;0.77;0.77;;;5.00;95.60;;;;;;4936270;29;20677;-59
2024/01/07 11:18:33;;;;;;;1.40;0.98;;;4.90;96.10;;;;;;4936438;29;20186;-59
2024/01/07 11:21:02;;;;;;;0.98;0.70;;;5.00;95.80;;;;;;4935818;29;20285;-55
2024/01/07 11:23:33;;;;;;;0.88;0.88;;;5.00;95.90;;;;;;4936101;29;20186;-59
2024/01/07 11:26:03;;;;;;;0.50;0.50;;;5.00;95.90;;;;;;4936310;29;20192;-59
2024/01/07 11:28:46;;;;;;;0.50;0.50;;;5.20;95.90;;;;;;4936032;29;20183;-59
2024/01/07 11:31:13;;;;;;;1.23;0.85;;;5.10;95.60;;;;;;4935558;29;20205;-59
2024/01/07 11:33:41;;;;;;;0.40;0.40;;;5.00;95.40;;;;;;4936148;29;20218;-59
2024/01/07 11:36:07;;;;;;;0.50;0.50;;;4.90;95.40;;;;;;4936022;29;20174;-58
2024/01/07 11:38:35;;;;;;;0.65;0.40;;;4.80;95.70;;;;;;4935810;29;20178;-59
2024/01/07 11:41:03;;;;;;;0.70;0.70;;;4.70;95.40;;;;;;4935720;29;20732;-58
2024/01/07 11:43:29;;;;;;;0.35;0.35;;;4.80;95.70;;;;;;4919024;29;20612;-59
2024/01/07 11:45:55;;;;;;;0.90;0.90;;;4.90;95.30;;;;;;4935604;29;20560;-58
2024/01/07 11:48:21;;;;;;;0.43;0.43;;;5.00;94.90;;;;;;4935764;29;20175;-59
2024/01/07 11:50:46;;;;;;;1.17;1.17;;;5.00;94.60;;;;;;4935156;29;20201;-60
2024/01/07 11:53:12;;;;;;;0.83;0.83;;;5.00;94.90;;;;;;4935515;29;20208;-58
2024/01/07 11:55:38;;;;;;;0.50;0.50;;;4.80;95.10;;;;;;4935623;29;20178;-59
2024/01/07 11:58:04;;;;;;;0.40;0.40;;;4.90;95.30;;;;;;4935307;29;20266;-59
2024/01/07 12:00:34;;;;;;;0.40;0.40;;;5.00;95.00;;;;;;4935158;29;20186;-59
2024/01/07 12:03:01;;;;;;;1.50;1.50;;;5.20;94.80;;;;;;4935419;29;20207;-58
2024/01/07 12:05:28;;;;;;;0.77;0.60;;;5.20;94.70;;;;;;4935523;29;20292;-59
2024/01/07 12:07:53;;;;;;;1.02;0.82;;;5.30;94.50;;;;;;4935338;29;20414;-59
2024/01/07 12:10:19;;;;;;;1.03;0.73;;;5.30;94.30;;;;;;4935034;29;20218;-57
2024/01/07 12:12:45;;;;;;;0.70;0.70;;;5.40;94.20;;;;;;4935052;29;20202;-57
2024/01/07 12:15:12;;;;;;;0.60;0.60;;;5.30;94.70;;;;;;4935178;29;20508;-59
2024/01/07 12:17:41;;;;;;;0.50;0.40;;;5.20;94.40;;;;;;4935033;29;20180;-58
2024/01/07 12:20:08;;;;;;;0.70;0.70;;;5.30;95.00;;;;;;4934921;29;20790;-57
2024/01/07 12:22:38;;;;;;;0.63;0.63;;;5.20;94.40;;;;;;4935049;29;20190;-59
2024/01/07 12:25:05;;;;;;;1.10;1.00;;;5.10;94.50;;;;;;4935038;29;20178;-60
2024/01/07 12:27:31;;;;;;;0.70;0.70;;;5.20;94.50;;;;;;4934790;29;20183;-58
2024/01/07 12:29:58;;;;;;;0.60;0.50;;;5.30;94.70;;;;;;4934661;29;20195;-59
2024/01/07 12:32:26;;;;;;;1.27;1.17;;;5.50;94.80;;;;;;4934790;29;20517;-59
2024/01/07 12:34:52;;;;;;;0.60;0.60;;;5.60;94.60;;;;;;4934764;29;20206;-58
2024/01/07 12:37:18;;;;;;;0.60;0.60;;;5.60;94.30;;;;;;4934661;29;20210;-59
2024/01/07 12:39:43;;;;;;;0.83;0.83;;;5.80;94.30;;;;;;4935019;29;20317;-59
2024/01/07 12:42:09;;;;;;;0.63;0.63;;;5.90;94.20;;;;;;4935001;29;20182;-58
2024/01/07 12:44:36;;;;;;;1.00;1.00;;;6.00;94.60;;;;;;4934775;29;20168;-59
2024/01/07 12:47:03;;;;;;;1.15;1.15;;;6.00;94.80;;;;;;4934682;29;20179;-58
2024/01/07 12:49:29;;;;;;;0.75;0.75;;;5.90;94.10;;;;;;4934801;29;20183;-58
2024/01/07 12:51:54;;;;;;;0.50;0.50;;;5.70;94.40;;;;;;4934279;29;20684;-58